Bookmark and Share
Track history (hours):
 

Drifting buoy 43519

Last reported at 2013-Nov-10 03:54 UTC. Time now 2014-Apr-23 19:13 UTC.
Position N 30°26' W 164°03'.
Warning: this ship's position is months out of date.

Water temperature 22.7 ° C

NotesDate/timePositionNaut miles runAvg speedWind from/ knotsBaromVisibWave heightAir tempDewpointWater temp
2013-Nov-10 03:54N 30°26' W 164°03'1 1.4 22.7
2013-Nov-10 03:08N 30°25' W 164°02'2 0.9 22.6
2013-Nov-10 01:27N 30°26' W 164°00'1 2.1 23.2
2013-Nov-10 00:59N 30°26' W 163°59'4 2.4 23.2
2013-Nov-09 23:21N 30°27' W 163°55'0 0.1 23.1
2013-Nov-09 21:30N 30°27' W 163°55'1 2.2 23.2
2013-Nov-09 21:10N 30°27' W 163°54'438.4 23.2
2013-Nov-09 21:04N 30°28' W 163°50'0 0.0 23.2
2013-Nov-09 20:43N 30°28' W 163°50'0 0.0 23.2
2013-Nov-09 19:47N 30°28' W 163°50'0 0.0 23.2
2013-Nov-09 19:26N 30°28' W 163°50'0 0.0
2013-Nov-09 17:18N 30°28' W 163°50'2 1.4 23.4
2013-Nov-09 15:49N 30°28' W 163°47'0 0.0 23.5
2013-Nov-09 14:08N 30°28' W 163°47'1 1.1 23.5
2013-Nov-09 13:38N 30°28' W 163°47'1 0.6 23.5
2013-Nov-09 11:54N 30°29' W 163°46'228.2
2013-Nov-09 11:49N 30°29' W 163°43'0 0.0 23.5
2013-Nov-09 09:08N 30°29' W 163°43'0 6.5 23.5
2013-Nov-09 09:04N 30°30' W 163°43'1 1.4 23.5
2013-Nov-09 08:22N 30°29' W 163°42'0 0.0 23.5
2013-Nov-09 08:18N 30°29' W 163°42'0 0.0 23.5
2013-Nov-09 07:24N 30°29' W 163°42'011.8 23.6
2013-Nov-09 07:22N 30°29' W 163°42'0 0.0 23.6
2013-Nov-09 07:02N 30°29' W 163°42'1 1.4 23.6
2013-Nov-09 06:06N 30°29' W 163°40'2 1.2 23.6
2013-Nov-09 04:22N 30°28' W 163°38'3 2.9 23.6
2013-Nov-09 03:19N 30°28' W 163°35'0 0.0 23.6
2013-Nov-09 01:38N 30°28' W 163°35'1 2.6 23.6
2013-Nov-09 01:13N 30°28' W 163°33'4 2.6 23.6
2013-Nov-08 23:29N 30°31' W 163°29'0 0.2 23.7
2013-Nov-08 21:48N 30°31' W 163°29'0 0.0 23.6
2013-Nov-08 21:23N 30°31' W 163°29'1 2.4 23.6
2013-Nov-08 21:03N 30°32' W 163°29'0 0.0 23.6
2013-Nov-08 20:12N 30°32' W 163°29'1 1.2 23.6
2013-Nov-08 19:41N 30°32' W 163°28'1 0.4 23.6
2013-Nov-08 17:08N 30°32' W 163°27'1 0.5 23.7
2013-Nov-08 16:10N 30°32' W 163°27'2 8.1 23.7
2013-Nov-08 15:57N 30°31' W 163°25'0 0.0 23.7
2013-Nov-08 14:21N 30°31' W 163°25'0 0.0 23.7
2013-Nov-08 13:50N 30°31' W 163°25'1 0.7 23.7
2013-Nov-08 12:08N 30°32' W 163°24'3 0.8 23.7
2013-Nov-08 08:54N 30°31' W 163°21'0 0.0 23.8
2013-Nov-08 07:47N 30°31' W 163°21'3 6.5 23.8
2013-Nov-08 07:16N 30°31' W 163°17'2 2.7 23.8
2013-Nov-08 06:35N 30°31' W 163°19'2 1.1 23.8
2013-Nov-08 04:54N 30°31' W 163°17'0 1.3 23.7
2013-Nov-08 04:48N 30°31' W 163°17'2 1.1 23.7
2013-Nov-08 03:26N 30°31' W 163°15'0 0.0 23.7
2013-Nov-08 03:09N 30°31' W 163°15'0 0.0
2013-Nov-08 03:05N 30°31' W 163°15'2 1.4 23.7
2013-Nov-08 01:54N 30°31' W 163°13'0 2.4 23.5
2013-Nov-08 01:51N 30°31' W 163°13'2 4.6 23.5
2013-Nov-08 01:20N 30°33' W 163°11'0 0.0 23.5
2013-Nov-07 23:41N 30°33' W 163°11'2 1.1 23.6
2013-Nov-07 21:33N 30°35' W 163°09'0 0.0 23.6
2013-Nov-07 21:24N 30°35' W 163°09'0 0.0 23.6
2013-Nov-07 20:33N 30°35' W 163°09'2 0.4 23.6
2013-Nov-07 16:11N 30°34' W 163°07'0 0.3 23.6
2013-Nov-07 15:53N 30°34' W 163°08'0 0.3 23.7
2013-Nov-07 14:30N 30°35' W 163°07'0 1.0 23.7
2013-Nov-07 14:00N 30°35' W 163°07'1 8.8 23.7
2013-Nov-07 13:51N 30°35' W 163°05'0 0.0 23.7
2013-Nov-07 12:21N 30°35' W 163°05'3 0.9 23.8
2013-Nov-07 09:03N 30°36' W 163°02'0 0.0 23.7
2013-Nov-07 08:10N 30°36' W 163°02'224.9 23.7
2013-Nov-07 08:05N 30°36' W 162°59'0 0.0 23.7
2013-Nov-07 07:29N 30°36' W 162°59'2 5.4 23.7
2013-Nov-07 07:06N 30°36' W 163°02'6 1.6 23.7
2013-Nov-07 03:33N 30°38' W 162°56'0 0.0 23.5
2013-Nov-07 02:02N 30°38' W 162°56'3 5.0 23.4
2013-Nov-07 01:30N 30°41' W 162°54'0 0.0 23.4
2013-Nov-06 23:52N 30°41' W 162°54'2 1.1 23.4
2013-Nov-06 21:48N 30°43' W 162°53'2 0.8 23.4
2013-Nov-06 20:01N 30°44' W 162°53'0 0.0 23.4
2013-Nov-06 19:08N 30°44' W 162°53'0 0.0 23.4
2013-Nov-06 17:13N 30°44' W 162°53'2 1.7 23.4
2013-Nov-06 16:17N 30°45' W 162°52'0 0.2 23.3
2013-Nov-06 14:38N 30°45' W 162°52'2 3.4 23.3
2013-Nov-06 14:11N 30°46' W 162°51'3 1.5 23.3
2013-Nov-06 12:23N 30°49' W 162°49'0 0.0
2013-Nov-06 09:19N 30°49' W 162°49'2 1.2 23.2
2013-Nov-06 07:40N 30°51' W 162°48'0 0.0 23.1
2013-Nov-06 06:46N 30°51' W 162°48'118.0 23.1
2013-Nov-06 06:43N 30°51' W 162°48'0 0.0 23.1
2013-Nov-06 04:21N 30°51' W 162°48'0 1.0 23.2
2013-Nov-06 03:54N 30°52' W 162°47'4 2.1 23.2
2013-Nov-06 02:12N 30°55' W 162°45'0 0.0 23.3
2013-Nov-06 01:40N 30°55' W 162°45'0 0.0 23.3
2013-Nov-06 00:02N 30°55' W 162°45'2 0.8 23.3
2013-Nov-05 21:59N 30°56' W 162°45'1 1.3 23.3
2013-Nov-05 21:13N 30°57' W 162°44'3 3.1 23.3
2013-Nov-05 20:13N 31°00' W 162°44'0 0.0 23.3
2013-Nov-05 19:31N 31°00' W 162°44'1 0.4 23.3
2013-Nov-05 16:39N 31°01' W 162°44'1 0.9 23.3
2013-Nov-05 16:03N 31°02' W 162°45'1 1.0 23.2
2013-Nov-05 14:54N 31°03' W 162°45'110.4 23.2
2013-Nov-05 14:46N 31°04' W 162°46'0 0.0 23.2
2013-Nov-05 12:44N 31°04' W 162°46'4 0.9 23.2
2013-Nov-05 08:47N 31°04' W 162°51'0 0.1 23.5
2013-Nov-05 08:02N 31°04' W 162°51'1 3.6 23.6
2013-Nov-05 07:49N 31°04' W 162°50'0 0.7 23.7
2013-Nov-05 07:08N 31°04' W 162°50'0 4.1 23.8
2013-Nov-05 07:05N 31°04' W 162°50'0 0.5 23.8
2013-Nov-05 06:08N 31°04' W 162°51'0 0.0 23.8
2013-Nov-05 04:51N 31°04' W 162°51'0 0.2 23.9
2013-Nov-05 02:39N 31°05' W 162°51'1 2.1 24.4
2013-Nov-05 02:24N 31°05' W 162°50'2 1.2 24.5
2013-Nov-05 00:38N 31°06' W 162°52'0 0.0
2013-Nov-05 00:14N 31°06' W 162°52'0 0.0 24.3
2013-Nov-04 22:30N 31°06' W 162°52'0 0.0 23.7
2013-Nov-04 21:34N 31°06' W 162°52'1 0.6 23.7
2013-Nov-04 20:23N 31°06' W 162°53'0 0.0
2013-Nov-04 19:54N 31°06' W 162°53'1 0.3 23.5
2013-Nov-04 18:10N 31°06' W 162°53'0 0.0 23.4
2013-Nov-04 17:05N 31°06' W 162°53'0 0.2 23.4
2013-Nov-04 15:27N 31°05' W 162°54'0 0.3 23.4
2013-Nov-04 15:05N 31°05' W 162°54'0 0.1 23.4
2013-Nov-04 12:54N 31°05' W 162°54'1 0.3 23.4
2013-Nov-04 09:11N 31°04' W 162°54'0 2.4 23.3
2013-Nov-04 09:08N 31°04' W 162°54'1 1.4 23.3
2013-Nov-04 08:23N 31°03' W 162°54'0 0.0 23.3
2013-Nov-04 08:03N 31°03' W 162°54'0 0.5 23.3
2013-Nov-04 07:29N 31°03' W 162°54'213.5 23.3
2013-Nov-04 07:22N 31°02' W 162°53'0 0.0 23.3
2013-Nov-04 06:22N 31°02' W 162°53'0 0.0 23.4
2013-Nov-04 05:21N 31°02' W 162°53'1 1.4 23.4
2013-Nov-04 04:38N 31°02' W 162°52'1 0.4 23.5
2013-Nov-04 03:00N 31°02' W 162°51'0 0.0 23.6
2013-Nov-04 02:36N 31°02' W 162°51'1 0.5 23.6
2013-Nov-04 00:22N 31°02' W 162°50'1 0.7 23.8
2013-Nov-03 22:43N 31°02' W 162°51'1 1.1 23.7
2013-Nov-03 21:54N 31°02' W 162°50'0 0.3 23.6
2013-Nov-03 21:08N 31°02' W 162°51'0 0.5 23.5
2013-Nov-03 20:45N 31°02' W 162°51'1 0.3 23.5
2013-Nov-03 19:02N 31°02' W 162°51'0 0.0
2013-Nov-03 17:07N 31°02' W 162°51'0 0.3 23.3
2013-Nov-03 15:52N 31°02' W 162°52'0 0.6 23.2
2013-Nov-03 15:27N 31°01' W 162°52'1 2.6 23.2
2013-Nov-03 15:08N 31°01' W 162°51'0 0.2 23.2
2013-Nov-03 13:05N 31°01' W 162°51'1 7.9 23.2
2013-Nov-03 12:57N 31°00' W 162°52'0 0.0 23.2
2013-Nov-03 11:23N 31°00' W 162°52'1 8.7 23.3
2013-Nov-03 11:16N 30°59' W 162°51'0 0.1 23.3
2013-Nov-03 08:15N 30°59' W 162°51'0 0.9 23.3
2013-Nov-03 07:54N 30°59' W 162°51'1 0.6 23.3
2013-Nov-03 06:34N 30°58' W 162°50'3 1.1 23.3
2013-Nov-03 04:15N 30°59' W 162°47'0 0.0 23.3
2013-Nov-03 03:27N 30°59' W 162°47'1 1.7 23.3
2013-Nov-03 02:49N 30°59' W 162°46'0 0.0 23.4
2013-Nov-03 01:49N 30°59' W 162°46'0 0.0 23.4
2013-Nov-03 01:06N 30°59' W 162°46'1 1.3 23.4
2013-Nov-03 00:38N 30°59' W 162°46'0 1.0 23.3
2013-Nov-03 00:35N 30°59' W 162°46'1 0.2 23.3
2013-Nov-02 20:49N 30°59' W 162°45'0 0.0 23.2
2013-Nov-02 19:13N 30°59' W 162°45'0 3.8
2013-Nov-02 19:08N 30°59' W 162°44'0 0.1 23.1
2013-Nov-02 16:08N 30°59' W 162°44'0 0.4 23.1
2013-Nov-02 15:54N 30°59' W 162°44'0 0.2 23.1
2013-Nov-02 15:23N 30°59' W 162°44'0 3.6 23.1
2013-Nov-02 15:20N 30°59' W 162°44'0 0.0 23.1
2013-Nov-02 13:44N 30°59' W 162°44'220.5 23.1
2013-Nov-02 13:38N 30°57' W 162°44'2 4.6 23.1
2013-Nov-02 13:16N 30°59' W 162°44'2 9.1 23.1
2013-Nov-02 13:05N 30°57' W 162°44'0 0.0 23.1
2013-Nov-02 08:27N 30°57' W 162°44'0 1.1 23.1
2013-Nov-02 08:13N 30°57' W 162°44'1 0.7 23.1
2013-Nov-02 06:48N 30°56' W 162°43'1 0.7 23.1
2013-Nov-02 04:46N 30°56' W 162°42'1 0.7 23.1
2013-Nov-02 03:53N 30°57' W 162°41'1 0.6 23.1
2013-Nov-02 02:57N 30°57' W 162°40'1 0.9 23.1
2013-Nov-02 02:09N 30°58' W 162°40'0 0.1 23.1
2013-Nov-02 01:18N 30°58' W 162°40'1 1.7 23.0
2013-Nov-02 00:49N 30°58' W 162°39'2 1.1 23.0
2013-Nov-01 23:05N 30°59' W 162°38'1 0.4 23.1
2013-Nov-01 21:02N 31°00' W 162°38'1 5.6 23.2
2013-Nov-01 20:54N 30°59' W 162°38'2 1.9 23.2
2013-Nov-01 20:03N 31°01' W 162°38'0 0.0 23.2
2013-Nov-01 18:07N 31°01' W 162°38'0 0.2 23.3
2013-Nov-01 16:34N 31°01' W 162°38'0 3.3 23.3
2013-Nov-01 16:31N 31°01' W 162°38'0 0.2 23.3
2013-Nov-01 15:38N 31°01' W 162°38'0 3.4 23.4
2013-Nov-01 15:31N 31°01' W 162°38'0 0.0 23.4
2013-Nov-01 13:53N 31°01' W 162°38'0 0.3 23.4
2013-Nov-01 13:24N 31°01' W 162°39'1 0.7 23.4
2013-Nov-01 11:38N 31°01' W 162°37'0 0.0 23.4
2013-Nov-01 08:30N 31°01' W 162°37'0 0.1 23.5
2013-Nov-01 07:44N 31°01' W 162°37'1 1.8 23.5
2013-Nov-01 07:00N 31°02' W 162°36'110.3 23.4
2013-Nov-01 06:54N 31°01' W 162°37'130.8 23.4
2013-Nov-01 06:52N 31°02' W 162°36'1 0.3 23.4
2013-Nov-01 04:17N 31°03' W 162°35'0 0.2 23.3
2013-Nov-01 03:08N 31°03' W 162°35'1 0.5 23.3
2013-Nov-01 01:30N 31°04' W 162°35'1 1.1 23.4
2013-Nov-01 00:59N 31°04' W 162°35'0 0.0 23.4
2013-Nov-01 00:54N 31°04' W 162°35'2 1.2 23.4
2013-Oct-31 23:13N 31°06' W 162°33'0 0.0 23.5
2013-Oct-31 21:18N 31°06' W 162°33'1 1.3 23.5
2013-Oct-31 20:26N 31°07' W 162°33'0 0.0 23.5
2013-Oct-31 19:35N 31°07' W 162°33'2 0.7 23.5
2013-Oct-31 17:00N 31°09' W 162°33'1 0.9 23.5
2013-Oct-31 15:48N 31°10' W 162°33'1 0.7 23.5
2013-Oct-31 14:08N 31°11' W 162°33'0 0.8 23.4
2013-Oct-31 13:38N 31°11' W 162°33'1 0.7 23.4
2013-Oct-31 11:52N 31°12' W 162°34'1 0.3 23.4
2013-Oct-31 08:53N 31°13' W 162°34'0 3.2 23.4
2013-Oct-31 08:50N 31°13' W 162°35'0 0.5 23.4
2013-Oct-31 08:05N 31°14' W 162°34'0 0.1 23.4
2013-Oct-31 07:11N 31°14' W 162°34'0 0.0 23.4
2013-Oct-31 07:09N 31°14' W 162°34'1 0.6 23.4
2013-Oct-31 05:49N 31°14' W 162°34'1 0.9 23.4
2013-Oct-31 04:43N 31°15' W 162°33'0 0.5 23.5
2013-Oct-31 04:06N 31°15' W 162°33'   23.5

Dump ship's entire track history

sailing weather and tide predictions

Buoy 43519